sensor_id;sensor_type;location;lat;lon;timestamp;pressure;altitude;pressure_sealevel;temperature;humidity
36234;BME280;43467;50.890;5.982;2023-05-23T00:00:25;100418.50;;;17.01;91.87
36234;BME280;43467;50.890;5.982;2023-05-23T00:02:51;100424.94;;;16.99;91.40
36234;BME280;43467;50.890;5.982;2023-05-23T00:05:17;100426.94;;;17.08;91.16
36234;BME280;43467;50.890;5.982;2023-05-23T00:07:44;100430.28;;;17.11;91.11
36234;BME280;43467;50.890;5.982;2023-05-23T00:10:10;100422.97;;;17.01;91.73
36234;BME280;43467;50.890;5.982;2023-05-23T00:12:36;100418.19;;;17.06;91.53
36234;BME280;43467;50.890;5.982;2023-05-23T00:15:04;100423.09;;;16.99;91.12
36234;BME280;43467;50.890;5.982;2023-05-23T00:17:32;100423.19;;;16.98;91.12
36234;BME280;43467;50.890;5.982;2023-05-23T00:19:57;100418.69;;;16.86;91.50
36234;BME280;43467;50.890;5.982;2023-05-23T00:22:22;100422.78;;;16.91;91.19
36234;BME280;43467;50.890;5.982;2023-05-23T00:24:48;100427.66;;;16.72;91.96
36234;BME280;43467;50.890;5.982;2023-05-23T00:27:13;100418.91;;;16.56;93.27
36234;BME280;43467;50.890;5.982;2023-05-23T00:29:39;100424.38;;;16.54;93.17
36234;BME280;43467;50.890;5.982;2023-05-23T00:32:04;100426.16;;;16.68;92.15
36234;BME280;43467;50.890;5.982;2023-05-23T00:34:29;100422.66;;;16.53;92.72
36234;BME280;43467;50.890;5.982;2023-05-23T00:36:55;100426.03;;;16.43;93.27
36234;BME280;43467;50.890;5.982;2023-05-23T00:39:20;100418.03;;;16.43;93.08
36234;BME280;43467;50.890;5.982;2023-05-23T00:41:47;100422.84;;;16.38;93.35
36234;BME280;43467;50.890;5.982;2023-05-23T00:44:12;100420.81;;;16.14;94.57
36234;BME280;43467;50.890;5.982;2023-05-23T00:46:38;100423.31;;;16.17;94.39
36234;BME280;43467;50.890;5.982;2023-05-23T00:49:04;100427.59;;;16.06;95.06
36234;BME280;43467;50.890;5.982;2023-05-23T00:51:29;100426.28;;;16.13;94.15
36234;BME280;43467;50.890;5.982;2023-05-23T00:53:56;100432.78;;;16.09;94.19
36234;BME280;43467;50.890;5.982;2023-05-23T00:56:23;100453.66;;;16.02;93.78
36234;BME280;43467;50.890;5.982;2023-05-23T00:58:50;100445.84;;;15.99;94.04
36234;BME280;43467;50.890;5.982;2023-05-23T01:01:16;100450.84;;;15.91;94.13
36234;BME280;43467;50.890;5.982;2023-05-23T01:03:43;100459.53;;;15.80;94.05
36234;BME280;43467;50.890;5.982;2023-05-23T01:06:10;100453.13;;;15.83;93.80
36234;BME280;43467;50.890;5.982;2023-05-23T01:08:36;100456.22;;;15.77;92.98
36234;BME280;43467;50.890;5.982;2023-05-23T01:11:07;100459.06;;;15.74;92.87
36234;BME280;43467;50.890;5.982;2023-05-23T01:13:44;100467.34;;;15.84;92.59
36234;BME280;43467;50.890;5.982;2023-05-23T01:16:16;100469.06;;;15.70;92.65
36234;BME280;43467;50.890;5.982;2023-05-23T01:18:56;100469.34;;;15.80;92.19
36234;BME280;43467;50.890;5.982;2023-05-23T01:21:23;100472.97;;;15.79;92.31
36234;BME280;43467;50.890;5.982;2023-05-23T01:29:53;100482.34;;;15.72;91.43
36234;BME280;43467;50.890;5.982;2023-05-23T01:32:16;100473.38;;;15.73;90.80
36234;BME280;43467;50.890;5.982;2023-05-23T01:34:44;100477.75;;;15.60;91.74
36234;BME280;43467;50.890;5.982;2023-05-23T01:37:11;100472.63;;;15.57;91.71
36234;BME280;43467;50.890;5.982;2023-05-23T01:39:38;100476.25;;;15.56;92.20
36234;BME280;43467;50.890;5.982;2023-05-23T01:42:04;100474.38;;;15.42;93.09
36234;BME280;43467;50.890;5.982;2023-05-23T01:44:32;100477.53;;;15.49;93.00
36234;BME280;43467;50.890;5.982;2023-05-23T01:46:58;100481.72;;;15.39;93.94
36234;BME280;43467;50.890;5.982;2023-05-23T01:49:25;100494.28;;;15.22;94.23
36234;BME280;43467;50.890;5.982;2023-05-23T01:51:51;100485.22;;;15.11;95.30
36234;BME280;43467;50.890;5.982;2023-05-23T01:54:16;100501.72;;;14.87;96.06
36234;BME280;43467;50.890;5.982;2023-05-23T01:56:43;100487.28;;;14.92;95.99
36234;BME280;43467;50.890;5.982;2023-05-23T01:59:09;100492.88;;;14.87;96.47
36234;BME280;43467;50.890;5.982;2023-05-23T02:01:36;100497.63;;;14.82;95.81
36234;BME280;43467;50.890;5.982;2023-05-23T02:04:03;100489.94;;;14.92;95.72
36234;BME280;43467;50.890;5.982;2023-05-23T02:06:28;100489.94;;;14.92;94.92
36234;BME280;43467;50.890;5.982;2023-05-23T02:08:53;100488.31;;;14.89;94.65
36234;BME280;43467;50.890;5.982;2023-05-23T02:11:19;100479.34;;;14.90;94.36
36234;BME280;43467;50.890;5.982;2023-05-23T02:13:44;100490.28;;;14.85;94.52
36234;BME280;43467;50.890;5.982;2023-05-23T02:16:10;100487.34;;;14.90;94.06
36234;BME280;43467;50.890;5.982;2023-05-23T02:18:35;100489.22;;;15.04;92.71
36234;BME280;43467;50.890;5.982;2023-05-23T02:21:05;100490.63;;;15.09;92.62
36234;BME280;43467;50.890;5.982;2023-05-23T02:23:31;100487.97;;;15.09;91.80
36234;BME280;43467;50.890;5.982;2023-05-23T02:25:56;100493.03;;;15.14;91.41
36234;BME280;43467;50.890;5.982;2023-05-23T02:28:21;100496.47;;;15.16;90.93
36234;BME280;43467;50.890;5.982;2023-05-23T02:30:47;100492.44;;;15.09;91.41
36234;BME280;43467;50.890;5.982;2023-05-23T02:33:12;100496.03;;;14.94;92.38
36234;BME280;43467;50.890;5.982;2023-05-23T02:38:13;100498.16;;;15.03;91.88
36234;BME280;43467;50.890;5.982;2023-05-23T02:40:39;100498.03;;;15.04;92.06
36234;BME280;43467;50.890;5.982;2023-05-23T02:43:05;100505.09;;;15.05;91.87
36234;BME280;43467;50.890;5.982;2023-05-23T02:45:30;100500.28;;;15.12;91.59
36234;BME280;43467;50.890;5.982;2023-05-23T02:47:56;100503.41;;;15.18;91.10
36234;BME280;43467;50.890;5.982;2023-05-23T02:50:21;100504.81;;;15.10;91.51
36234;BME280;43467;50.890;5.982;2023-05-23T02:52:46;100515.41;;;15.11;91.54
36234;BME280;43467;50.890;5.982;2023-05-23T02:55:13;100512.88;;;14.94;92.19
36234;BME280;43467;50.890;5.982;2023-05-23T02:57:38;100520.16;;;15.06;91.96
36234;BME280;43467;50.890;5.982;2023-05-23T03:00:04;100508.69;;;14.90;92.71
36234;BME280;43467;50.890;5.982;2023-05-23T03:02:29;100514.22;;;15.01;92.62
36234;BME280;43467;50.890;5.982;2023-05-23T03:04:55;100518.13;;;14.96;92.82
36234;BME280;43467;50.890;5.982;2023-05-23T03:07:21;100515.88;;;15.04;92.78
36234;BME280;43467;50.890;5.982;2023-05-23T03:09:46;100519.97;;;15.09;92.49
36234;BME280;43467;50.890;5.982;2023-05-23T03:12:12;100524.91;;;15.01;92.38
36234;BME280;43467;50.890;5.982;2023-05-23T03:14:37;100518.81;;;14.99;92.92
36234;BME280;43467;50.890;5.982;2023-05-23T03:17:02;100525.44;;;14.92;92.98
36234;BME280;43467;50.890;5.982;2023-05-23T03:19:28;100523.38;;;14.97;92.94
36234;BME280;43467;50.890;5.982;2023-05-23T03:21:53;100527.28;;;14.92;93.13
36234;BME280;43467;50.890;5.982;2023-05-23T03:24:19;100526.03;;;14.97;93.17
36234;BME280;43467;50.890;5.982;2023-05-23T03:26:44;100529.63;;;14.96;92.46
36234;BME280;43467;50.890;5.982;2023-05-23T03:29:10;100530.41;;;14.98;91.75
36234;BME280;43467;50.890;5.982;2023-05-23T03:31:35;100535.84;;;14.97;92.20
36234;BME280;43467;50.890;5.982;2023-05-23T03:34:01;100531.34;;;14.97;92.07
36234;BME280;43467;50.890;5.982;2023-05-23T03:36:26;100536.50;;;15.00;92.24
36234;BME280;43467;50.890;5.982;2023-05-23T03:38:52;100541.69;;;15.03;92.14
36234;BME280;43467;50.890;5.982;2023-05-23T03:41:18;100538.50;;;14.97;92.34
36234;BME280;43467;50.890;5.982;2023-05-23T03:43:43;100527.69;;;15.00;92.30
36234;BME280;43467;50.890;5.982;2023-05-23T03:46:09;100536.09;;;15.08;91.71
36234;BME280;43467;50.890;5.982;2023-05-23T03:48:35;100541.50;;;15.06;91.26
36234;BME280;43467;50.890;5.982;2023-05-23T03:51:01;100544.09;;;15.08;90.41
36234;BME280;43467;50.890;5.982;2023-05-23T03:53:26;100547.41;;;15.11;90.09
36234;BME280;43467;50.890;5.982;2023-05-23T03:55:52;100547.41;;;15.11;90.56
36234;BME280;43467;50.890;5.982;2023-05-23T03:58:18;100547.38;;;14.97;90.89
36234;BME280;43467;50.890;5.982;2023-05-23T04:00:44;100547.16;;;15.00;90.68
36234;BME280;43467;50.890;5.982;2023-05-23T04:03:10;100552.06;;;14.78;91.37
36234;BME280;43467;50.890;5.982;2023-05-23T04:05:39;100568.72;;;14.81;91.33
36234;BME280;43467;50.890;5.982;2023-05-23T04:08:05;100556.25;;;14.82;90.85
36234;BME280;43467;50.890;5.982;2023-05-23T04:10:30;100569.47;;;14.83;90.31
36234;BME280;43467;50.890;5.982;2023-05-23T04:12:56;100553.22;;;14.88;89.99
36234;BME280;43467;50.890;5.982;2023-05-23T04:15:22;100560.47;;;14.86;90.41
36234;BME280;43467;50.890;5.982;2023-05-23T04:17:49;100566.03;;;14.97;89.93
36234;BME280;43467;50.890;5.982;2023-05-23T04:20:15;100575.53;;;14.87;90.28
36234;BME280;43467;50.890;5.982;2023-05-23T04:22:41;100571.66;;;14.77;90.96
36234;BME280;43467;50.890;5.982;2023-05-23T04:25:07;100564.34;;;14.80;90.43
36234;BME280;43467;50.890;5.982;2023-05-23T04:27:33;100573.19;;;14.81;90.56
36234;BME280;43467;50.890;5.982;2023-05-23T04:29:59;100580.44;;;14.79;90.74
36234;BME280;43467;50.890;5.982;2023-05-23T04:32:25;100585.06;;;14.75;91.38
36234;BME280;43467;50.890;5.982;2023-05-23T04:34:50;100576.97;;;14.77;91.33
36234;BME280;43467;50.890;5.982;2023-05-23T04:37:17;100577.63;;;14.66;91.96
36234;BME280;43467;50.890;5.982;2023-05-23T04:39:46;100576.31;;;14.58;92.22
36234;BME280;43467;50.890;5.982;2023-05-23T04:42:12;100566.78;;;14.54;93.12
36234;BME280;43467;50.890;5.982;2023-05-23T04:44:38;100560.66;;;14.52;93.71
36234;BME280;43467;50.890;5.982;2023-05-23T04:47:03;100569.28;;;14.41;93.58
36234;BME280;43467;50.890;5.982;2023-05-23T04:49:29;100571.00;;;14.58;93.09
36234;BME280;43467;50.890;5.982;2023-05-23T04:51:54;100585.50;;;14.36;93.90
36234;BME280;43467;50.890;5.982;2023-05-23T04:54:20;100582.16;;;14.49;93.83
36234;BME280;43467;50.890;5.982;2023-05-23T04:56:45;100585.19;;;14.58;93.03
36234;BME280;43467;50.890;5.982;2023-05-23T04:59:11;100581.03;;;14.53;93.23
36234;BME280;43467;50.890;5.982;2023-05-23T05:01:37;100588.19;;;14.52;92.97
36234;BME280;43467;50.890;5.982;2023-05-23T05:04:05;100579.94;;;14.41;94.22
36234;BME280;43467;50.890;5.982;2023-05-23T05:06:31;100569.03;;;14.46;93.81
36234;BME280;43467;50.890;5.982;2023-05-23T05:08:56;100583.09;;;14.48;92.99
36234;BME280;43467;50.890;5.982;2023-05-23T05:11:22;100579.16;;;14.55;92.51
36234;BME280;43467;50.890;5.982;2023-05-23T05:13:47;100564.19;;;14.52;92.44
36234;BME280;43467;50.890;5.982;2023-05-23T05:16:13;100578.81;;;14.61;92.16
36234;BME280;43467;50.890;5.982;2023-05-23T05:18:38;100580.28;;;14.51;92.70
36234;BME280;43467;50.890;5.982;2023-05-23T05:21:03;100576.75;;;14.50;92.90
36234;BME280;43467;50.890;5.982;2023-05-23T05:23:30;100589.22;;;14.50;92.93
36234;BME280;43467;50.890;5.982;2023-05-23T05:25:56;100594.38;;;14.53;92.50
36234;BME280;43467;50.890;5.982;2023-05-23T05:28:22;100600.13;;;14.45;93.05
36234;BME280;43467;50.890;5.982;2023-05-23T05:30:47;100597.66;;;14.42;93.07
36234;BME280;43467;50.890;5.982;2023-05-23T05:33:18;100592.38;;;14.56;92.69
36234;BME280;43467;50.890;5.982;2023-05-23T05:35:44;100601.00;;;14.61;92.21
36234;BME280;43467;50.890;5.982;2023-05-23T05:38:10;100600.72;;;14.66;91.67
36234;BME280;43467;50.890;5.982;2023-05-23T05:40:35;100602.38;;;14.53;92.21
36234;BME280;43467;50.890;5.982;2023-05-23T05:43:01;100607.50;;;14.56;92.20
36234;BME280;43467;50.890;5.982;2023-05-23T05:45:26;100617.75;;;14.48;92.34
36234;BME280;43467;50.890;5.982;2023-05-23T05:47:52;100608.44;;;14.39;92.70
36234;BME280;43467;50.890;5.982;2023-05-23T05:50:17;100623.69;;;14.37;92.45
36234;BME280;43467;50.890;5.982;2023-05-23T05:52:44;100619.75;;;14.27;93.40
36234;BME280;43467;50.890;5.982;2023-05-23T05:55:10;100617.69;;;14.32;93.27
36234;BME280;43467;50.890;5.982;2023-05-23T05:57:36;100613.59;;;14.26;93.64
36234;BME280;43467;50.890;5.982;2023-05-23T06:00:08;100619.06;;;14.23;93.80
36234;BME280;43467;50.890;5.982;2023-05-23T06:02:38;100609.63;;;14.33;93.39
36234;BME280;43467;50.890;5.982;2023-05-23T06:05:04;100618.84;;;14.43;93.09
36234;BME280;43467;50.890;5.982;2023-05-23T06:07:32;100623.94;;;14.48;92.50
36234;BME280;43467;50.890;5.982;2023-05-23T06:09:58;100621.09;;;14.51;92.16
36234;BME280;43467;50.890;5.982;2023-05-23T06:12:23;100620.06;;;14.54;92.36
36234;BME280;43467;50.890;5.982;2023-05-23T06:14:49;100621.53;;;14.43;92.89
36234;BME280;43467;50.890;5.982;2023-05-23T06:17:15;100623.50;;;14.56;92.05
36234;BME280;43467;50.890;5.982;2023-05-23T06:19:41;100611.47;;;14.64;91.63
36234;BME280;43467;50.890;5.982;2023-05-23T06:22:06;100621.19;;;14.65;90.76
36234;BME280;43467;50.890;5.982;2023-05-23T06:24:31;100627.22;;;14.69;90.81
36234;BME280;43467;50.890;5.982;2023-05-23T06:26:57;100626.69;;;14.62;91.43
36234;BME280;43467;50.890;5.982;2023-05-23T06:29:22;100630.66;;;14.71;91.27
36234;BME280;43467;50.890;5.982;2023-05-23T06:31:47;100626.97;;;14.58;91.59
36234;BME280;43467;50.890;5.982;2023-05-23T06:34:13;100638.66;;;14.71;90.95
36234;BME280;43467;50.890;5.982;2023-05-23T06:36:39;100629.69;;;14.72;91.32
36234;BME280;43467;50.890;5.982;2023-05-23T06:39:06;100633.22;;;14.72;92.32
36234;BME280;43467;50.890;5.982;2023-05-23T06:41:34;100634.09;;;14.73;92.67
36234;BME280;43467;50.890;5.982;2023-05-23T06:43:59;100633.16;;;14.74;93.31
36234;BME280;43467;50.890;5.982;2023-05-23T06:46:25;100640.03;;;14.62;94.49
36234;BME280;43467;50.890;5.982;2023-05-23T06:48:50;100641.81;;;14.46;95.10
36234;BME280;43467;50.890;5.982;2023-05-23T06:51:16;100641.47;;;14.52;95.72
36234;BME280;43467;50.890;5.982;2023-05-23T06:53:41;100649.19;;;14.41;97.16
36234;BME280;43467;50.890;5.982;2023-05-23T06:56:08;100644.81;;;14.40;96.66
36234;BME280;43467;50.890;5.982;2023-05-23T06:58:33;100643.19;;;14.37;96.71
36234;BME280;43467;50.890;5.982;2023-05-23T07:00:58;100655.38;;;14.41;96.59
36234;BME280;43467;50.890;5.982;2023-05-23T07:03:24;100655.16;;;14.46;96.38
36234;BME280;43467;50.890;5.982;2023-05-23T07:05:49;100654.28;;;14.46;96.35
36234;BME280;43467;50.890;5.982;2023-05-23T07:08:15;100659.00;;;14.56;96.69
36234;BME280;43467;50.890;5.982;2023-05-23T07:10:40;100666.38;;;14.51;95.71
36234;BME280;43467;50.890;5.982;2023-05-23T07:13:06;100664.25;;;14.58;95.59
36234;BME280;43467;50.890;5.982;2023-05-23T07:15:31;100670.16;;;14.47;95.93
36234;BME280;43467;50.890;5.982;2023-05-23T07:17:57;100669.78;;;14.55;95.78
36234;BME280;43467;50.890;5.982;2023-05-23T07:20:22;100677.16;;;14.50;96.31
36234;BME280;43467;50.890;5.982;2023-05-23T07:22:48;100678.34;;;14.44;96.47
36234;BME280;43467;50.890;5.982;2023-05-23T07:25:16;100675.16;;;14.37;96.90
36234;BME280;43467;50.890;5.982;2023-05-23T07:27:41;100676.88;;;14.38;96.72
36234;BME280;43467;50.890;5.982;2023-05-23T07:30:07;100677.41;;;14.45;97.12
36234;BME280;43467;50.890;5.982;2023-05-23T07:32:34;100678.59;;;14.55;96.62
36234;BME280;43467;50.890;5.982;2023-05-23T07:35:00;100681.09;;;14.43;95.83
36234;BME280;43467;50.890;5.982;2023-05-23T07:37:26;100680.81;;;14.47;96.07
36234;BME280;43467;50.890;5.982;2023-05-23T07:39:54;100675.78;;;14.43;95.68
36234;BME280;43467;50.890;5.982;2023-05-23T07:42:20;100676.34;;;14.48;95.96
36234;BME280;43467;50.890;5.982;2023-05-23T07:44:45;100676.66;;;14.59;95.22
36234;BME280;43467;50.890;5.982;2023-05-23T07:47:11;100689.25;;;14.55;95.01
36234;BME280;43467;50.890;5.982;2023-05-23T07:49:36;100676.34;;;14.48;94.97
36234;BME280;43467;50.890;5.982;2023-05-23T07:52:02;100684.19;;;14.51;95.17
36234;BME280;43467;50.890;5.982;2023-05-23T07:54:28;100687.34;;;14.41;95.71
36234;BME280;43467;50.890;5.982;2023-05-23T07:56:54;100694.56;;;14.39;95.98
36234;BME280;43467;50.890;5.982;2023-05-23T07:59:19;100704.91;;;14.46;96.69
36234;BME280;43467;50.890;5.982;2023-05-23T08:01:46;100699.88;;;14.39;97.50
36234;BME280;43467;50.890;5.982;2023-05-23T08:04:15;100697.66;;;14.48;98.33
36234;BME280;43467;50.890;5.982;2023-05-23T08:06:40;100694.06;;;14.31;96.20
36234;BME280;43467;50.890;5.982;2023-05-23T08:09:05;100693.69;;;14.39;97.05
36234;BME280;43467;50.890;5.982;2023-05-23T08:11:31;100703.88;;;14.31;96.42
36234;BME280;43467;50.890;5.982;2023-05-23T08:13:57;100699.50;;;14.30;98.08
36234;BME280;43467;50.890;5.982;2023-05-23T08:16:24;100701.31;;;14.29;98.16
36234;BME280;43467;50.890;5.982;2023-05-23T08:18:50;100701.72;;;14.22;99.44
36234;BME280;43467;50.890;5.982;2023-05-23T08:21:15;100712.44;;;14.20;99.08
36234;BME280;43467;50.890;5.982;2023-05-23T08:23:41;100712.00;;;14.12;98.70
36234;BME280;43467;50.890;5.982;2023-05-23T08:26:06;100704.16;;;14.09;99.28
36234;BME280;43467;50.890;5.982;2023-05-23T08:28:32;100717.47;;;14.09;99.43
36234;BME280;43467;50.890;5.982;2023-05-23T08:30:58;100722.75;;;13.93;98.57
36234;BME280;43467;50.890;5.982;2023-05-23T08:33:25;100715.69;;;13.92;98.94
36234;BME280;43467;50.890;5.982;2023-05-23T08:35:50;100715.88;;;13.89;99.12
36234;BME280;43467;50.890;5.982;2023-05-23T08:38:16;100725.00;;;13.84;98.99
36234;BME280;43467;50.890;5.982;2023-05-23T08:40:47;100713.50;;;13.83;99.01
36234;BME280;43467;50.890;5.982;2023-05-23T08:43:13;100735.13;;;13.77;97.91
36234;BME280;43467;50.890;5.982;2023-05-23T08:45:39;100726.41;;;13.74;97.54
36234;BME280;43467;50.890;5.982;2023-05-23T08:48:07;100723.28;;;13.83;95.82
36234;BME280;43467;50.890;5.982;2023-05-23T08:50:36;100735.81;;;13.81;94.87
36234;BME280;43467;50.890;5.982;2023-05-23T08:53:03;100733.84;;;13.84;94.70
36234;BME280;43467;50.890;5.982;2023-05-23T08:55:29;100742.09;;;13.97;93.73
36234;BME280;43467;50.890;5.982;2023-05-23T08:57:57;100742.22;;;14.11;93.33
36234;BME280;43467;50.890;5.982;2023-05-23T09:00:25;100741.50;;;14.25;93.55
36234;BME280;43467;50.890;5.982;2023-05-23T09:02:52;100744.41;;;14.37;91.59
36234;BME280;43467;50.890;5.982;2023-05-23T09:05:19;100749.81;;;14.36;89.67
36234;BME280;43467;50.890;5.982;2023-05-23T09:07:45;100747.34;;;14.31;89.95
36234;BME280;43467;50.890;5.982;2023-05-23T09:10:15;100741.88;;;14.34;88.17
36234;BME280;43467;50.890;5.982;2023-05-23T09:12:47;100744.88;;;14.46;88.43
36234;BME280;43467;50.890;5.982;2023-05-23T09:15:12;100761.38;;;14.52;87.65
36234;BME280;43467;50.890;5.982;2023-05-23T09:17:38;100768.94;;;14.60;87.91
36234;BME280;43467;50.890;5.982;2023-05-23T09:20:11;100762.66;;;14.45;87.13
36234;BME280;43467;50.890;5.982;2023-05-23T09:22:38;100762.59;;;14.47;86.20
36234;BME280;43467;50.890;5.982;2023-05-23T09:25:04;100762.41;;;14.32;86.27
36234;BME280;43467;50.890;5.982;2023-05-23T09:27:30;100766.16;;;14.28;85.09
36234;BME280;43467;50.890;5.982;2023-05-23T09:29:55;100783.50;;;14.37;84.25
36234;BME280;43467;50.890;5.982;2023-05-23T09:32:20;100780.28;;;14.13;84.06
36234;BME280;43467;50.890;5.982;2023-05-23T09:37:15;100778.16;;;14.03;82.60
36234;BME280;43467;50.890;5.982;2023-05-23T09:39:46;100789.78;;;14.02;82.10
36234;BME280;43467;50.890;5.982;2023-05-23T09:42:19;100781.00;;;14.17;82.24
36234;BME280;43467;50.890;5.982;2023-05-23T09:44:44;100780.81;;;14.20;81.86
36234;BME280;43467;50.890;5.982;2023-05-23T09:47:10;100802.06;;;14.21;80.68
36234;BME280;43467;50.890;5.982;2023-05-23T09:49:38;100784.50;;;14.34;81.60
36234;BME280;43467;50.890;5.982;2023-05-23T09:52:04;100787.94;;;14.54;79.62
36234;BME280;43467;50.890;5.982;2023-05-23T09:54:29;100782.03;;;14.64;77.74
36234;BME280;43467;50.890;5.982;2023-05-23T09:56:57;100789.78;;;14.69;76.90
36234;BME280;43467;50.890;5.982;2023-05-23T09:59:27;100784.59;;;14.83;76.46
36234;BME280;43467;50.890;5.982;2023-05-23T10:01:55;100776.88;;;14.61;75.03
36234;BME280;43467;50.890;5.982;2023-05-23T10:04:21;100779.06;;;14.86;75.77
36234;BME280;43467;50.890;5.982;2023-05-23T10:06:50;100784.06;;;14.92;74.62
36234;BME280;43467;50.890;5.982;2023-05-23T10:09:19;100780.28;;;14.96;72.76
36234;BME280;43467;50.890;5.982;2023-05-23T10:12:18;100787.28;;;14.99;71.98
36234;BME280;43467;50.890;5.982;2023-05-23T10:14:51;100787.28;;;15.14;72.68
36234;BME280;43467;50.890;5.982;2023-05-23T10:17:30;100792.19;;;15.06;70.34
36234;BME280;43467;50.890;5.982;2023-05-23T10:20:03;100789.16;;;15.12;68.71
36234;BME280;43467;50.890;5.982;2023-05-23T10:22:35;100784.78;;;15.27;69.26
36234;BME280;43467;50.890;5.982;2023-05-23T10:25:02;100785.97;;;15.37;68.85
36234;BME280;43467;50.890;5.982;2023-05-23T10:27:28;100783.59;;;15.48;68.57
36234;BME280;43467;50.890;5.982;2023-05-23T10:29:54;100786.25;;;15.48;67.86
36234;BME280;43467;50.890;5.982;2023-05-23T10:32:21;100797.63;;;15.52;67.13
36234;BME280;43467;50.890;5.982;2023-05-23T10:37:47;100792.72;;;15.44;66.97
36234;BME280;43467;50.890;5.982;2023-05-23T10:40:32;100789.94;;;15.30;66.61
36234;BME280;43467;50.890;5.982;2023-05-23T10:43:04;100797.31;;;15.41;66.92
36234;BME280;43467;50.890;5.982;2023-05-23T10:45:42;100797.50;;;15.38;67.37
36234;BME280;43467;50.890;5.982;2023-05-23T10:51:09;100792.84;;;15.41;67.17
36234;BME280;43467;50.890;5.982;2023-05-23T10:53:38;100780.56;;;15.39;68.40
36234;BME280;43467;50.890;5.982;2023-05-23T10:56:17;100798.13;;;15.43;67.19
36234;BME280;43467;50.890;5.982;2023-05-23T10:58:44;100800.59;;;15.46;66.80
36234;BME280;43467;50.890;5.982;2023-05-23T11:01:15;100807.19;;;15.56;66.40
36234;BME280;43467;50.890;5.982;2023-05-23T11:09:26;100801.38;;;15.79;65.33
36234;BME280;43467;50.890;5.982;2023-05-23T11:14:18;100797.94;;;15.77;66.04
36234;BME280;43467;50.890;5.982;2023-05-23T11:16:44;100804.22;;;15.76;66.06
36234;BME280;43467;50.890;5.982;2023-05-23T11:21:43;100813.41;;;15.56;65.54
36234;BME280;43467;50.890;5.982;2023-05-23T11:24:09;100813.53;;;15.53;66.95
36234;BME280;43467;50.890;5.982;2023-05-23T11:26:35;100820.88;;;15.50;67.23
36234;BME280;43467;50.890;5.982;2023-05-23T11:29:00;100789.38;;;15.56;67.34
36234;BME280;43467;50.890;5.982;2023-05-23T11:31:28;100800.97;;;15.71;66.96
36234;BME280;43467;50.890;5.982;2023-05-23T11:33:54;100807.31;;;15.84;67.28
36234;BME280;43467;50.890;5.982;2023-05-23T11:36:20;100803.88;;;15.82;66.16
36234;BME280;43467;50.890;5.982;2023-05-23T11:38:48;100810.22;;;15.95;65.92
36234;BME280;43467;50.890;5.982;2023-05-23T11:41:14;100810.59;;;15.89;64.62
36234;BME280;43467;50.890;5.982;2023-05-23T11:43:51;100806.38;;;15.85;64.95
36234;BME280;43467;50.890;5.982;2023-05-23T11:46:17;100807.31;;;15.84;65.58
36234;BME280;43467;50.890;5.982;2023-05-23T11:48:47;100801.53;;;15.92;65.58
36234;BME280;43467;50.890;5.982;2023-05-23T11:51:14;100803.59;;;15.87;65.76
36234;BME280;43467;50.890;5.982;2023-05-23T11:53:40;100817.34;;;15.65;65.42
36234;BME280;43467;50.890;5.982;2023-05-23T11:56:06;100825.25;;;15.66;65.63
36234;BME280;43467;50.890;5.982;2023-05-23T12:01:03;100817.59;;;15.60;65.62
36234;BME280;43467;50.890;5.982;2023-05-23T12:03:29;100829.84;;;15.64;64.71
36234;BME280;43467;50.890;5.982;2023-05-23T12:05:57;100813.63;;;15.67;65.19
36234;BME280;43467;50.890;5.982;2023-05-23T12:08:23;100812.81;;;15.97;64.59
36234;BME280;43467;50.890;5.982;2023-05-23T12:10:56;100808.88;;;16.18;62.66
36234;BME280;43467;50.890;5.982;2023-05-23T12:13:27;100809.84;;;16.31;62.01
36234;BME280;43467;50.890;5.982;2023-05-23T12:15:57;100814.16;;;16.48;60.89
36234;BME280;43467;50.890;5.982;2023-05-23T12:18:27;100796.66;;;16.58;61.00
36234;BME280;43467;50.890;5.982;2023-05-23T12:20:54;100805.06;;;16.80;61.57
36234;BME280;43467;50.890;5.982;2023-05-23T12:23:23;100813.28;;;16.77;60.71
36234;BME280;43467;50.890;5.982;2023-05-23T12:25:52;100805.06;;;16.80;60.76
36234;BME280;43467;50.890;5.982;2023-05-23T12:28:33;100826.66;;;16.77;59.21
36234;BME280;43467;50.890;5.982;2023-05-23T12:30:58;100809.28;;;16.70;58.40
36234;BME280;43467;50.890;5.982;2023-05-23T12:33:24;100822.34;;;16.75;58.58
36234;BME280;43467;50.890;5.982;2023-05-23T12:35:50;100819.97;;;16.70;58.29
36234;BME280;43467;50.890;5.982;2023-05-23T12:38:15;100813.94;;;16.81;58.20
36234;BME280;43467;50.890;5.982;2023-05-23T12:40:41;100809.63;;;16.92;56.23
36234;BME280;43467;50.890;5.982;2023-05-23T12:43:08;100810.78;;;17.02;56.40
36234;BME280;43467;50.890;5.982;2023-05-23T12:45:35;100809.06;;;17.01;54.75
36234;BME280;43467;50.890;5.982;2023-05-23T12:48:07;100829.50;;;17.16;53.77
36234;BME280;43467;50.890;5.982;2023-05-23T12:50:33;100817.84;;;17.32;54.87
36234;BME280;43467;50.890;5.982;2023-05-23T12:52:58;100801.81;;;17.44;53.52
36234;BME280;43467;50.890;5.982;2023-05-23T12:55:24;100809.38;;;17.38;50.91
36234;BME280;43467;50.890;5.982;2023-05-23T12:57:49;100800.25;;;17.28;51.63
36234;BME280;43467;50.890;5.982;2023-05-23T13:00:15;100817.63;;;17.35;51.37
36234;BME280;43467;50.890;5.982;2023-05-23T13:02:41;100816.84;;;17.33;51.51
36234;BME280;43467;50.890;5.982;2023-05-23T13:05:07;100815.09;;;17.46;51.67
36234;BME280;43467;50.890;5.982;2023-05-23T13:07:33;100827.09;;;17.26;50.85
36234;BME280;43467;50.890;5.982;2023-05-23T13:09:58;100812.41;;;17.05;51.87
36234;BME280;43467;50.890;5.982;2023-05-23T13:12:24;100810.00;;;17.14;52.52
36234;BME280;43467;50.890;5.982;2023-05-23T13:14:49;100822.50;;;17.28;51.68
36234;BME280;43467;50.890;5.982;2023-05-23T13:17:15;100825.78;;;17.19;50.31